Time;durP1;ratioP1;P1;durP2;ratioP2;P2;SDS_P1;SDS_P2;PMS_P1;PMS_P2;Temp;Humidity;BMP_temperature;BMP_pressure;BME280_temperature;BME280_humidity;BME280_pressure;Samples;Min_cycle;Max_cycle;Signal;HPM_P1;HPM_P2
2023/06/30 00:02:22;;;;;;;10.37;7.73;;;19.80;26.70;;;;;;5004181;28;46459;-80
2023/06/30 00:04:48;;;;;;;12.47;8.80;;;19.80;27.00;;;;;;4983972;28;46409;-79
2023/06/30 00:07:14;;;;;;;11.93;8.33;;;19.70;27.30;;;;;;5005481;28;46785;-79
2023/06/30 00:09:39;;;;;;;20.03;9.60;;;19.80;27.60;;;;;;5006719;28;46584;-82
2023/06/30 00:12:05;;;;;;;12.53;8.83;;;19.70;27.80;;;;;;5006423;28;46515;-80
2023/06/30 00:14:31;;;;;;;14.57;8.30;;;19.70;27.90;;;;;;5004892;28;46142;-80
2023/06/30 00:16:57;;;;;;;13.33;9.17;;;19.80;28.10;;;;;;5006568;28;46427;-79
2023/06/30 00:19:24;;;;;;;14.37;9.30;;;19.70;28.10;;;;;;5001726;28;46298;-80
2023/06/30 00:21:52;;;;;;;13.30;10.03;;;19.70;28.40;;;;;;5000035;28;46522;-79
2023/06/30 00:24:18;;;;;;;15.17;9.00;;;19.70;28.60;;;;;;5001243;28;46408;-79
2023/06/30 00:26:44;;;;;;;13.13;9.80;;;19.70;28.90;;;;;;5002274;28;46461;-81
2023/06/30 00:29:10;;;;;;;12.03;9.37;;;19.70;29.20;;;;;;5000767;28;46476;-80
2023/06/30 00:31:36;;;;;;;15.30;9.97;;;19.60;29.30;;;;;;4995502;28;46321;-81
2023/06/30 00:34:01;;;;;;;14.37;9.60;;;19.60;29.70;;;;;;4999837;28;46390;-81
2023/06/30 00:36:28;;;;;;;19.00;10.50;;;19.60;29.80;;;;;;5001416;28;46668;-81
2023/06/30 00:38:54;;;;;;;19.20;11.07;;;19.60;30.00;;;;;;4999758;28;46822;-79
2023/06/30 00:41:21;;;;;;;15.60;10.07;;;19.60;30.10;;;;;;4999185;28;46519;-78
2023/06/30 00:43:46;;;;;;;14.87;11.13;;;19.60;30.20;;;;;;5002308;28;46376;-81
2023/06/30 00:46:15;;;;;;;15.10;10.50;;;19.60;30.20;;;;;;5002124;28;46462;-79
2023/06/30 00:48:41;;;;;;;16.53;10.80;;;19.60;30.30;;;;;;4999832;28;47736;-79
2023/06/30 00:51:07;;;;;;;14.60;10.07;;;19.60;30.30;;;;;;4982402;28;46444;-79
2023/06/30 00:53:32;;;;;;;15.23;10.80;;;19.60;30.40;;;;;;5003235;28;46459;-80
2023/06/30 00:55:58;;;;;;;17.43;11.77;;;19.60;30.60;;;;;;4983930;28;46463;-79
2023/06/30 00:58:23;;;;;;;16.63;11.03;;;19.60;30.90;;;;;;5000694;28;47026;-78
2023/06/30 01:00:54;;;;;;;14.23;11.20;;;19.60;31.20;;;;;;5001365;28;46469;-79
2023/06/30 01:03:29;;;;;;;15.80;11.40;;;19.50;31.40;;;;;;5002925;28;46368;-80
2023/06/30 01:05:59;;;;;;;16.63;11.00;;;19.50;31.50;;;;;;5003585;28;46887;-79
2023/06/30 01:08:38;;;;;;;17.13;11.63;;;19.50;31.60;;;;;;5000824;28;47354;-80
2023/06/30 01:11:04;;;;;;;22.87;13.13;;;19.60;32.10;;;;;;4999630;28;45987;-80
2023/06/30 01:13:31;;;;;;;20.07;12.57;;;19.50;31.90;;;;;;5003655;28;46488;-80
2023/06/30 01:15:58;;;;;;;35.93;12.23;;;19.60;32.10;;;;;;5001906;28;46885;-81
2023/06/30 01:18:25;;;;;;;18.23;12.87;;;19.60;32.20;;;;;;4983559;28;48638;-80
2023/06/30 01:20:51;;;;;;;15.60;11.77;;;19.60;32.30;;;;;;5003210;28;46441;-79
2023/06/30 01:23:34;;;;;;;19.00;12.77;;;19.60;32.50;;;;;;5008765;28;46472;-78
2023/06/30 01:26:01;;;;;;;17.90;12.03;;;19.60;33.30;;;;;;5004980;28;46718;-80
2023/06/30 01:28:28;;;;;;;18.60;11.80;;;19.60;32.90;;;;;;4991187;28;48628;-80
2023/06/30 01:30:55;;;;;;;16.30;11.80;;;19.50;33.10;;;;;;5008814;28;46337;-80
2023/06/30 01:33:21;;;;;;;16.07;11.73;;;19.50;33.30;;;;;;5007355;28;46988;-80
2023/06/30 01:35:47;;;;;;;21.27;12.33;;;19.50;33.60;;;;;;4989152;28;47167;-80
2023/06/30 01:38:13;;;;;;;20.03;12.50;;;19.40;33.50;;;;;;5008401;28;46308;-80
2023/06/30 01:40:38;;;;;;;18.60;12.63;;;19.50;33.60;;;;;;4992904;28;46476;-80
2023/06/30 01:43:04;;;;;;;22.30;12.90;;;19.50;33.60;;;;;;4991296;28;46792;-79
2023/06/30 01:45:31;;;;;;;22.80;13.30;;;19.50;34.80;;;;;;4987308;28;46414;-79
2023/06/30 01:47:57;;;;;;;18.80;12.30;;;19.50;33.60;;;;;;5006501;28;46644;-79
2023/06/30 01:50:23;;;;;;;20.73;11.70;;;19.60;33.70;;;;;;5001154;28;46427;-78
2023/06/30 01:52:49;;;;;;;20.17;12.80;;;19.60;33.70;;;;;;5001169;28;47018;-82
2023/06/30 01:55:16;;;;;;;24.17;12.97;;;19.60;33.70;;;;;;4987502;28;46455;-81
2023/06/30 01:57:41;;;;;;;19.93;13.00;;;19.60;33.70;;;;;;4983012;28;49192;-84
2023/06/30 02:00:07;;;;;;;22.80;12.43;;;19.60;33.70;;;;;;5005828;28;47061;-82
2023/06/30 02:02:33;;;;;;;17.97;12.60;;;19.50;33.60;;;;;;5003492;28;46265;-80
2023/06/30 02:04:58;;;;;;;25.10;13.57;;;19.50;33.70;;;;;;5001994;28;46775;-79
2023/06/30 02:07:24;;;;;;;23.83;14.37;;;19.60;33.70;;;;;;5000649;28;46447;-80
2023/06/30 02:09:50;;;;;;;20.43;13.33;;;19.50;33.70;;;;;;4982524;28;46642;-82
2023/06/30 02:12:16;;;;;;;23.83;14.50;;;19.50;34.80;;;;;;4980821;28;46460;-82
2023/06/30 02:14:41;;;;;;;21.33;13.97;;;19.50;33.60;;;;;;4998967;28;46531;-81
2023/06/30 02:17:10;;;;;;;21.70;13.97;;;19.60;33.70;;;;;;5001151;28;47286;-81
2023/06/30 02:19:36;;;;;;;28.20;15.90;;;19.50;34.00;;;;;;4999339;28;46348;-79
2023/06/30 02:22:01;;;;;;;23.70;15.50;;;19.40;34.70;;;;;;4999083;28;46459;-79
2023/06/30 02:24:27;;;;;;;23.30;16.00;;;19.40;35.20;;;;;;4998151;28;45944;-81
2023/06/30 02:26:52;;;;;;;24.57;16.33;;;19.40;35.70;;;;;;4998393;28;46928;-80
2023/06/30 02:29:20;;;;;;;23.90;16.67;;;19.30;36.10;;;;;;4998126;28;46533;-78
2023/06/30 02:31:46;;;;;;;25.27;16.20;;;19.40;36.60;;;;;;4997452;28;46546;-80
2023/06/30 02:34:12;;;;;;;25.27;15.13;;;19.20;36.90;;;;;;5000716;28;46664;-79
2023/06/30 02:36:37;;;;;;;27.27;16.70;;;19.30;37.40;;;;;;4997803;28;46481;-80
2023/06/30 02:39:04;;;;;;;28.50;17.53;;;19.20;37.90;;;;;;4980771;28;46405;-80
2023/06/30 02:41:29;;;;;;;25.57;17.77;;;19.20;38.40;;;;;;4995708;28;46837;-79
2023/06/30 02:43:55;;;;;;;25.60;16.47;;;19.20;38.80;;;;;;4997165;28;45845;-80
2023/06/30 02:46:20;;;;;;;33.63;18.17;;;19.10;39.10;;;;;;4996361;28;46453;-79
2023/06/30 02:48:46;;;;;;;24.83;17.10;;;19.20;39.40;;;;;;4982710;28;46410;-80
2023/06/30 02:51:11;;;;;;;31.17;17.67;;;19.10;39.60;;;;;;4999190;28;46429;-80
2023/06/30 02:53:38;;;;;;;31.70;18.23;;;19.20;40.00;;;;;;4999202;28;46540;-84
2023/06/30 02:56:04;;;;;;;29.40;17.27;;;19.20;40.00;;;;;;4985849;28;48172;-80
2023/06/30 02:58:30;;;;;;;34.90;18.90;;;19.20;40.00;;;;;;5002425;28;46660;-80
2023/06/30 03:00:56;;;;;;;29.40;17.33;;;19.10;40.30;;;;;;5003894;28;46585;-80
2023/06/30 03:03:22;;;;;;;33.30;18.03;;;19.10;40.70;;;;;;4981755;28;46861;-80
2023/06/30 03:05:47;;;;;;;32.97;19.20;;;19.20;41.40;;;;;;4985254;28;48076;-82
2023/06/30 03:08:13;;;;;;;33.47;19.40;;;19.00;41.60;;;;;;5003417;28;46432;-82
2023/06/30 03:10:39;;;;;;;33.67;18.50;;;19.00;41.80;;;;;;5001006;28;46955;-80
2023/06/30 03:13:04;;;;;;;36.60;20.27;;;19.10;41.90;;;;;;5002379;28;46059;-82
2023/06/30 03:15:30;;;;;;;28.20;18.27;;;19.00;41.90;;;;;;5003079;28;46397;-81
2023/06/30 03:17:55;;;;;;;37.47;20.90;;;19.10;42.20;;;;;;5003907;28;46442;-81
2023/06/30 03:20:21;;;;;;;30.10;18.63;;;19.00;42.20;;;;;;4982659;28;46379;-79
2023/06/30 03:22:47;;;;;;;32.80;19.33;;;19.00;42.40;;;;;;4982896;28;46517;-81
2023/06/30 03:25:12;;;;;;;27.73;16.83;;;19.00;42.70;;;;;;5005569;28;47013;-81
2023/06/30 03:27:38;;;;;;;31.67;19.50;;;18.90;43.00;;;;;;5002474;28;46281;-84
2023/06/30 03:30:05;;;;;;;29.80;19.63;;;18.90;43.60;;;;;;5001355;28;46507;-80
2023/06/30 03:32:31;;;;;;;39.13;19.30;;;18.90;43.80;;;;;;5005807;28;46471;-83
2023/06/30 03:34:57;;;;;;;39.30;22.50;;;19.00;43.90;;;;;;4986815;28;47285;-82
2023/06/30 03:37:22;;;;;;;36.00;21.10;;;19.00;44.00;;;;;;4987357;28;45770;-82
2023/06/30 03:39:48;;;;;;;37.57;21.63;;;18.90;44.00;;;;;;5004713;28;46204;-81
2023/06/30 03:42:14;;;;;;;35.00;20.37;;;19.00;44.20;;;;;;5004463;28;46333;-83
2023/06/30 03:44:39;;;;;;;37.30;19.50;;;19.00;44.10;;;;;;5006269;28;46359;-83
2023/06/30 03:47:05;;;;;;;32.43;21.20;;;19.00;45.30;;;;;;5004216;28;46357;-80
2023/06/30 03:49:30;;;;;;;35.10;21.07;;;19.00;44.30;;;;;;4997544;28;46475;-80
2023/06/30 03:51:56;;;;;;;36.40;20.57;;;19.00;44.40;;;;;;5002043;28;47181;-81
2023/06/30 03:54:21;;;;;;;39.40;20.23;;;19.10;44.50;;;;;;5000616;28;47139;-79
2023/06/30 03:56:47;;;;;;;36.40;21.30;;;19.10;44.40;;;;;;4999725;28;46482;-80
2023/06/30 03:59:13;;;;;;;34.03;20.83;;;19.20;44.40;;;;;;4981813;28;46431;-81
2023/06/30 04:01:39;;;;;;;34.53;20.17;;;19.20;44.40;;;;;;5000589;28;46526;-81
2023/06/30 04:04:05;;;;;;;38.80;22.00;;;19.20;44.30;;;;;;5001378;28;46941;-80
2023/06/30 04:06:33;;;;;;;35.70;21.53;;;19.30;44.40;;;;;;4998946;28;47821;-78
2023/06/30 04:08:59;;;;;;;38.43;20.90;;;19.30;44.60;;;;;;4997023;28;46457;-80
2023/06/30 04:11:25;;;;;;;32.63;19.80;;;19.20;44.60;;;;;;4998888;28;46361;-79
2023/06/30 04:13:50;;;;;;;40.47;22.57;;;19.20;44.70;;;;;;5000560;28;46438;-80
2023/06/30 04:16:17;;;;;;;40.30;21.60;;;19.20;44.70;;;;;;4981717;28;46683;-80
2023/06/30 04:18:43;;;;;;;33.27;20.50;;;19.30;44.80;;;;;;4998546;28;46508;-78
2023/06/30 04:21:08;;;;;;;38.33;21.67;;;19.30;44.70;;;;;;5002849;28;46679;-80
2023/06/30 04:23:34;;;;;;;42.73;22.80;;;19.40;44.70;;;;;;5002348;28;46483;-80
2023/06/30 04:26:00;;;;;;;38.27;21.90;;;19.50;44.70;;;;;;5001009;28;46438;-81
2023/06/30 04:28:26;;;;;;;35.50;21.17;;;19.50;44.50;;;;;;4979920;28;46449;-81
2023/06/30 04:30:52;;;;;;;38.00;22.27;;;19.50;44.30;;;;;;5003102;28;46416;-82
2023/06/30 04:33:17;;;;;;;41.27;22.40;;;19.60;44.10;;;;;;4986005;28;48259;-81
2023/06/30 04:35:46;;;;;;;38.77;21.33;;;19.60;43.90;;;;;;5000326;28;46505;-81
2023/06/30 04:38:11;;;;;;;38.97;22.17;;;19.60;43.90;;;;;;4999834;28;46472;-80
2023/06/30 04:40:37;;;;;;;44.13;23.57;;;19.60;44.30;;;;;;5002609;28;46448;-81
2023/06/30 04:43:11;;;;;;;38.63;23.03;;;19.60;44.30;;;;;;5001424;28;46399;-80
2023/06/30 04:45:36;;;;;;;41.33;21.77;;;19.60;44.30;;;;;;5000106;28;46408;-82
2023/06/30 04:48:02;;;;;;;35.37;20.83;;;19.60;44.50;;;;;;4981817;28;46448;-81
2023/06/30 04:50:27;;;;;;;36.43;21.03;;;19.50;44.50;;;;;;4984947;28;46564;-80
2023/06/30 04:52:53;;;;;;;33.73;20.90;;;19.60;44.60;;;;;;5004563;28;46424;-81
2023/06/30 04:55:18;;;;;;;38.93;21.73;;;19.50;44.80;;;;;;5002351;28;46416;-80
2023/06/30 04:57:44;;;;;;;46.37;23.10;;;19.50;44.80;;;;;;5000966;28;45881;-80
2023/06/30 05:00:10;;;;;;;36.87;22.23;;;19.60;44.80;;;;;;5004949;28;45909;-80
2023/06/30 05:02:36;;;;;;;38.80;23.50;;;19.60;44.80;;;;;;5005385;28;46698;-82
2023/06/30 05:05:01;;;;;;;52.43;23.57;;;19.60;44.80;;;;;;5002077;28;46358;-80
2023/06/30 05:07:27;;;;;;;37.83;22.00;;;19.60;44.80;;;;;;5004146;28;46404;-81
2023/06/30 05:09:53;;;;;;;41.10;24.07;;;19.60;44.70;;;;;;4988574;28;46500;-81
2023/06/30 05:12:18;;;;;;;39.87;23.77;;;19.60;45.00;;;;;;5005234;28;47210;-80
2023/06/30 05:14:44;;;;;;;42.60;24.40;;;19.70;45.00;;;;;;5002408;28;46461;-80
2023/06/30 05:17:09;;;;;;;42.33;24.13;;;19.60;44.90;;;;;;5004481;28;45784;-82
2023/06/30 05:19:35;;;;;;;42.23;24.07;;;19.60;44.90;;;;;;4986985;28;46413;-80
2023/06/30 05:22:01;;;;;;;43.17;25.30;;;19.60;44.90;;;;;;5007658;28;46341;-84
2023/06/30 05:24:26;;;;;;;42.13;24.00;;;19.70;46.00;;;;;;5006492;28;45857;-80
2023/06/30 05:26:53;;;;;;;43.03;24.83;;;19.80;44.80;;;;;;5005011;28;46512;-83
2023/06/30 05:29:19;;;;;;;41.80;24.37;;;19.80;44.80;;;;;;5008542;28;46447;-84
2023/06/30 05:31:45;;;;;;;43.60;25.00;;;19.90;44.80;;;;;;5008057;28;46444;-83
2023/06/30 05:34:15;;;;;;;43.20;25.50;;;19.90;44.80;;;;;;5002607;28;46412;-81
2023/06/30 05:36:44;;;;;;;49.17;26.80;;;19.90;44.70;;;;;;4980706;28;46445;-80
2023/06/30 05:39:11;;;;;;;53.93;26.30;;;19.90;44.70;;;;;;5003553;28;46377;-81
2023/06/30 05:41:37;;;;;;;40.40;23.60;;;20.00;44.80;;;;;;5005004;28;47551;-82
2023/06/30 05:44:02;;;;;;;51.73;27.63;;;20.10;44.80;;;;;;5003923;28;46836;-80
2023/06/30 05:46:28;;;;;;;44.40;26.63;;;20.10;44.70;;;;;;4998465;28;46585;-80
2023/06/30 05:48:53;;;;;;;48.10;26.20;;;20.20;44.80;;;;;;5001964;28;45987;-80
2023/06/30 05:51:19;;;;;;;41.90;26.23;;;20.40;44.80;;;;;;5000906;28;46369;-80
2023/06/30 05:53:45;;;;;;;45.33;26.20;;;20.40;44.70;;;;;;4996089;28;46937;-80
2023/06/30 05:56:11;;;;;;;47.60;27.43;;;20.50;44.40;;;;;;4999718;28;46479;-80
2023/06/30 05:58:39;;;;;;;44.53;25.47;;;20.60;44.40;;;;;;4999553;28;46516;-81
2023/06/30 06:01:05;;;;;;;49.00;26.33;;;20.60;44.30;;;;;;4998623;28;47429;-81
2023/06/30 06:03:30;;;;;;;45.07;26.83;;;20.80;44.40;;;;;;4996142;28;46376;-81
2023/06/30 06:05:59;;;;;;;46.60;26.87;;;20.80;44.20;;;;;;5002673;28;46409;-85
2023/06/30 06:08:24;;;;;;;49.43;26.20;;;20.80;44.10;;;;;;4990472;28;46848;-77
2023/06/30 06:10:50;;;;;;;43.60;26.03;;;20.90;44.00;;;;;;4982795;28;48882;-80
2023/06/30 06:13:36;;;;;;;44.23;25.13;;;20.90;43.80;;;;;;4999016;28;46425;-83
2023/06/30 06:16:02;;;;;;;40.50;25.57;;;21.00;43.80;;;;;;4996239;28;46443;-85
2023/06/30 06:18:29;;;;;;;43.80;26.30;;;21.00;43.60;;;;;;4997926;28;46586;-84
2023/06/30 06:20:55;;;;;;;40.03;23.50;;;21.20;43.70;;;;;;4999114;28;46152;-85
2023/06/30 06:23:21;;;;;;;41.10;25.03;;;21.10;43.60;;;;;;4982766;28;47178;-85
2023/06/30 06:25:47;;;;;;;43.63;25.63;;;21.10;43.40;;;;;;4995383;28;46585;-82
2023/06/30 06:28:12;;;;;;;42.40;26.23;;;21.10;43.30;;;;;;4983857;28;46313;-82
2023/06/30 06:30:38;;;;;;;47.70;26.00;;;21.10;43.20;;;;;;5003195;28;47010;-82
2023/06/30 06:33:03;;;;;;;45.50;25.07;;;21.20;43.20;;;;;;5001912;28;46468;-81
2023/06/30 06:35:29;;;;;;;43.07;25.70;;;21.20;43.30;;;;;;4982281;28;46398;-85
2023/06/30 06:37:54;;;;;;;38.13;24.60;;;21.10;43.50;;;;;;5005291;28;46380;-82
2023/06/30 06:40:20;;;;;;;37.80;23.63;;;21.10;43.80;;;;;;5005116;28;46494;-83
2023/06/30 06:42:45;;;;;;;40.00;23.50;;;21.00;43.70;;;;;;4983708;28;46448;-86
2023/06/30 06:45:12;;;;;;;39.87;24.40;;;21.00;43.70;;;;;;5001333;28;46524;-85
2023/06/30 06:48:15;;;;;;;38.80;24.07;;;20.90;43.80;;;;;;5004356;28;46161;-84
2023/06/30 06:50:41;;;;;;;43.53;25.87;;;21.00;43.80;;;;;;4982744;28;48232;-80
2023/06/30 06:53:06;;;;;;;46.13;26.70;;;21.00;43.40;;;;;;4984169;28;46381;-83
2023/06/30 06:55:32;;;;;;;40.40;25.30;;;21.10;43.50;;;;;;5002814;28;46737;-85
2023/06/30 06:57:58;;;;;;;45.13;25.10;;;21.10;43.20;;;;;;4985722;28;46454;-86
2023/06/30 07:00:23;;;;;;;41.90;25.60;;;21.20;43.30;;;;;;5002538;28;46427;-85
2023/06/30 07:02:49;;;;;;;41.53;26.23;;;21.30;43.00;;;;;;5005047;28;46454;-86
2023/06/30 07:05:15;;;;;;;43.23;26.40;;;21.50;42.50;;;;;;5003807;28;46186;-84
2023/06/30 07:07:40;;;;;;;48.47;26.97;;;21.70;42.20;;;;;;5001433;28;45904;-84
2023/06/30 07:10:06;;;;;;;40.40;23.40;;;21.80;41.90;;;;;;5003263;28;46028;-86
2023/06/30 07:12:32;;;;;;;42.50;26.10;;;21.80;41.60;;;;;;5004977;28;46589;-83
2023/06/30 07:14:57;;;;;;;42.70;25.33;;;21.90;41.50;;;;;;5003425;28;46428;-82
2023/06/30 07:17:23;;;;;;;43.37;23.97;;;22.00;41.10;;;;;;5002744;28;46448;-84
2023/06/30 07:19:48;;;;;;;45.20;24.40;;;22.20;41.00;;;;;;4981924;28;49362;-81
2023/06/30 07:22:14;;;;;;;44.80;24.90;;;22.10;40.80;;;;;;5000948;28;46209;-84
2023/06/30 07:24:40;;;;;;;46.23;25.80;;;22.30;40.40;;;;;;5001004;28;46377;-86
2023/06/30 07:27:05;;;;;;;42.50;24.60;;;22.50;39.70;;;;;;4997823;28;46448;-84
2023/06/30 07:29:31;;;;;;;40.80;24.27;;;22.70;39.00;;;;;;5000823;28;46494;-84
2023/06/30 07:31:56;;;;;;;40.07;24.40;;;22.80;38.20;;;;;;5002785;28;46423;-83
2023/06/30 07:34:23;;;;;;;46.23;24.43;;;22.90;37.30;;;;;;4984951;28;47682;-82
2023/06/30 07:36:51;;;;;;;40.97;24.80;;;22.90;37.30;;;;;;4979932;28;46492;-82
2023/06/30 07:39:17;;;;;;;47.30;25.67;;;23.10;36.90;;;;;;5000139;28;46494;-82
2023/06/30 07:41:42;;;;;;;43.70;25.57;;;23.10;36.90;;;;;;5001595;28;46364;-85
2023/06/30 07:44:11;;;;;;;41.53;24.60;;;23.20;37.00;;;;;;5000754;28;46934;-83
2023/06/30 07:46:36;;;;;;;38.13;23.47;;;23.10;36.90;;;;;;4980880;28;46301;-83
2023/06/30 07:49:02;;;;;;;41.23;24.50;;;23.10;36.90;;;;;;5000944;28;46409;-83
2023/06/30 07:51:29;;;;;;;39.97;23.83;;;23.10;37.00;;;;;;5001680;28;46520;-84
2023/06/30 07:53:55;;;;;;;40.67;22.90;;;22.90;36.80;;;;;;5000489;28;45841;-84
2023/06/30 07:56:20;;;;;;;37.70;23.13;;;22.70;37.60;;;;;;4999113;28;46503;-82
2023/06/30 07:58:46;;;;;;;41.67;24.33;;;22.60;38.10;;;;;;4998898;28;46518;-82
2023/06/30 08:01:11;;;;;;;36.33;23.10;;;22.30;38.40;;;;;;4999950;28;46426;-83
2023/06/30 08:03:37;;;;;;;36.93;23.00;;;22.10;39.00;;;;;;4999777;28;46305;-82
2023/06/30 08:06:02;;;;;;;38.80;22.40;;;22.00;39.60;;;;;;5001300;28;46416;-85
2023/06/30 08:08:31;;;;;;;37.07;21.93;;;21.90;39.70;;;;;;5002127;28;46587;-83
2023/06/30 08:10:57;;;;;;;38.10;22.10;;;21.80;40.00;;;;;;5001574;28;46742;-86
2023/06/30 08:13:22;;;;;;;36.43;22.00;;;21.70;40.30;;;;;;4982239;28;46437;-82
2023/06/30 08:15:48;;;;;;;34.90;19.67;;;21.70;40.30;;;;;;4986210;28;46457;-82
2023/06/30 08:18:14;;;;;;;34.20;20.27;;;21.60;40.10;;;;;;4988373;28;47713;-82
2023/06/30 08:20:39;;;;;;;35.07;21.10;;;21.60;39.80;;;;;;4981270;28;46670;-82
2023/06/30 08:23:05;;;;;;;38.20;21.80;;;21.60;39.80;;;;;;4987671;28;47014;-83
2023/06/30 08:25:30;;;;;;;37.13;21.90;;;21.60;39.90;;;;;;4986218;28;46440;-82
2023/06/30 08:27:56;;;;;;;37.60;21.23;;;21.60;39.60;;;;;;4999014;28;46549;-83
2023/06/30 08:30:22;;;;;;;38.60;21.27;;;21.60;39.60;;;;;;4998265;28;46451;-81
2023/06/30 08:32:48;;;;;;;30.30;18.50;;;21.60;39.40;;;;;;5000855;28;46613;-84
2023/06/30 08:35:15;;;;;;;37.03;19.83;;;21.60;39.50;;;;;;5006637;28;47110;-86
2023/06/30 08:37:41;;;;;;;38.73;19.97;;;21.50;40.80;;;;;;4981084;28;48203;-83
2023/06/30 08:40:07;;;;;;;32.80;19.47;;;21.50;39.50;;;;;;5004445;28;46351;-84
2023/06/30 08:42:36;;;;;;;36.70;19.70;;;21.50;39.70;;;;;;5005060;28;46496;-81
2023/06/30 08:45:03;;;;;;;35.37;19.50;;;21.40;40.00;;;;;;5008813;28;46668;-83
2023/06/30 08:47:32;;;;;;;32.90;20.43;;;21.30;40.00;;;;;;4978923;28;49164;-84
2023/06/30 08:49:58;;;;;;;31.30;20.30;;;21.30;40.30;;;;;;5003547;28;46469;-85
2023/06/30 08:52:25;;;;;;;37.17;20.80;;;21.30;40.50;;;;;;5002941;28;46445;-84
2023/06/30 08:54:50;;;;;;;31.97;19.67;;;21.30;40.60;;;;;;4982396;28;46511;-80
2023/06/30 08:57:17;;;;;;;31.90;19.67;;;21.20;40.60;;;;;;4985134;28;48154;-85
2023/06/30 08:59:43;;;;;;;34.73;20.30;;;21.10;41.10;;;;;;5003878;28;46779;-83
2023/06/30 09:02:12;;;;;;;34.07;18.60;;;21.00;41.40;;;;;;5003461;28;46590;-84
2023/06/30 09:04:40;;;;;;;28.00;17.27;;;21.00;41.70;;;;;;4999483;28;46365;-82
2023/06/30 09:07:10;;;;;;;27.03;14.73;;;20.70;42.70;;;;;;4985102;28;49378;-86
2023/06/30 09:09:41;;;;;;;26.87;15.53;;;20.60;45.10;;;;;;5002331;28;46675;-84
2023/06/30 09:12:10;;;;;;;25.07;14.87;;;20.50;44.40;;;;;;4984720;28;46214;-82
2023/06/30 09:14:38;;;;;;;25.53;15.17;;;20.50;44.40;;;;;;4982859;28;46679;-85
2023/06/30 09:17:05;;;;;;;26.07;15.37;;;20.60;44.00;;;;;;5001057;28;46491;-86
2023/06/30 09:19:30;;;;;;;25.93;15.47;;;20.70;43.70;;;;;;4982974;28;46417;-84
2023/06/30 09:21:57;;;;;;;26.13;15.20;;;20.80;43.30;;;;;;5001057;28;46496;-83
2023/06/30 09:24:23;;;;;;;36.00;16.20;;;20.90;43.20;;;;;;4985375;28;46528;-85
2023/06/30 09:26:49;;;;;;;28.27;14.43;;;20.90;42.60;;;;;;5002407;28;46392;-85
2023/06/30 09:29:18;;;;;;;24.57;14.90;;;21.00;42.40;;;;;;5000316;28;45864;-82
2023/06/30 09:31:43;;;;;;;23.87;13.77;;;21.10;43.10;;;;;;4999326;28;46463;-84
2023/06/30 09:34:13;;;;;;;28.57;13.67;;;21.20;42.10;;;;;;5003198;28;46439;-85
2023/06/30 09:36:51;;;;;;;29.73;14.40;;;21.40;41.60;;;;;;5000744;28;46507;-84
2023/06/30 09:39:17;;;;;;;23.77;14.37;;;21.50;41.10;;;;;;4995730;28;46460;-83
2023/06/30 09:41:45;;;;;;;21.70;14.17;;;21.70;40.80;;;;;;5002479;28;46474;-86
2023/06/30 09:44:11;;;;;;;23.90;15.43;;;21.60;42.00;;;;;;5003881;28;46409;-84
2023/06/30 09:46:48;;;;;;;25.27;13.97;;;21.70;40.60;;;;;;5001225;28;47637;-83
2023/06/30 09:49:42;;;;;;;22.20;13.00;;;21.60;40.70;;;;;;5000195;28;46246;-85
2023/06/30 09:52:08;;;;;;;21.80;13.70;;;21.60;40.70;;;;;;4983975;28;46788;-84
2023/06/30 09:54:35;;;;;;;23.63;13.50;;;21.70;40.40;;;;;;4999319;28;46412;-84
2023/06/30 09:57:05;;;;;;;22.10;13.43;;;21.70;40.10;;;;;;4980144;28;48283;-86
2023/06/30 09:59:31;;;;;;;24.87;14.03;;;21.70;40.00;;;;;;5002355;28;46904;-84
2023/06/30 10:01:58;;;;;;;22.43;13.57;;;21.80;39.40;;;;;;4985508;28;46544;-85
2023/06/30 10:04:25;;;;;;;24.33;14.10;;;22.00;38.90;;;;;;5005038;28;46628;-84
2023/06/30 10:06:52;;;;;;;28.37;15.90;;;22.10;38.70;;;;;;4999938;28;48987;-84
2023/06/30 10:09:21;;;;;;;30.07;15.67;;;22.20;38.20;;;;;;4982195;28;46437;-84
2023/06/30 10:11:52;;;;;;;22.47;13.60;;;22.40;36.90;;;;;;5003490;28;46788;-83
2023/06/30 10:14:21;;;;;;;28.33;16.13;;;22.90;35.90;;;;;;5003828;28;46404;-82
2023/06/30 10:16:47;;;;;;;25.03;15.10;;;23.20;35.40;;;;;;4986596;28;48317;-83
2023/06/30 10:19:14;;;;;;;26.00;15.07;;;23.20;35.20;;;;;;5007224;28;46432;-86
2023/06/30 10:21:40;;;;;;;24.50;15.03;;;23.80;33.60;;;;;;4987696;28;46444;-86
2023/06/30 10:24:07;;;;;;;29.40;15.53;;;24.40;31.90;;;;;;5011865;28;45808;-83
2023/06/30 10:26:36;;;;;;;27.80;15.67;;;24.60;30.90;;;;;;5011522;28;46929;-84
2023/06/30 10:29:03;;;;;;;28.43;16.90;;;24.70;30.60;;;;;;4987723;28;46385;-84
2023/06/30 10:31:28;;;;;;;24.87;16.20;;;24.70;30.60;;;;;;5006175;28;46409;-85
2023/06/30 10:33:54;;;;;;;24.60;16.20;;;24.80;30.20;;;;;;4991521;28;46420;-85
2023/06/30 10:36:20;;;;;;;27.93;16.20;;;25.00;29.90;;;;;;4986355;28;49010;-82
2023/06/30 10:38:47;;;;;;;26.73;15.60;;;25.00;29.60;;;;;;5003968;28;46432;-84
2023/06/30 10:41:19;;;;;;;26.70;16.10;;;25.00;29.50;;;;;;5006847;28;46483;-83
2023/06/30 10:44:04;;;;;;;30.60;17.20;;;24.90;29.80;;;;;;4987404;28;46408;-86
2023/06/30 10:46:46;;;;;;;27.20;18.00;;;24.80;29.80;;;;;;4985590;28;48047;-84
2023/06/30 10:49:31;;;;;;;27.53;16.97;;;24.70;29.80;;;;;;5009195;28;46475;-82
2023/06/30 10:51:59;;;;;;;24.90;15.87;;;24.90;29.60;;;;;;5005392;28;46480;-81
2023/06/30 10:54:37;;;;;;;26.27;16.60;;;25.30;28.40;;;;;;5005183;28;46356;-82
2023/06/30 10:57:05;;;;;;;28.97;17.33;;;25.60;27.20;;;;;;4999503;28;46421;-81
2023/06/30 10:59:36;;;;;;;23.70;15.60;;;25.90;26.40;;;;;;5000602;28;45835;-83
2023/06/30 11:02:13;;;;;;;27.77;16.87;;;25.80;26.40;;;;;;5003026;28;46738;-84
2023/06/30 11:04:43;;;;;;;26.40;15.27;;;25.40;26.90;;;;;;5003480;28;47024;-82
2023/06/30 11:07:10;;;;;;;26.27;15.60;;;25.40;27.40;;;;;;4981284;28;48410;-84
2023/06/30 11:09:48;;;;;;;26.90;17.00;;;25.60;27.00;;;;;;5003050;28;46431;-78
2023/06/30 11:12:18;;;;;;;27.47;15.77;;;25.80;26.40;;;;;;4986421;28;46476;-84
2023/06/30 11:14:57;;;;;;;26.93;16.77;;;25.80;26.30;;;;;;4998716;28;46692;-80
2023/06/30 11:17:50;;;;;;;26.30;16.23;;;25.90;26.50;;;;;;5002540;28;46608;-85
2023/06/30 11:20:17;;;;;;;30.43;17.60;;;25.90;24.90;;;;;;4985868;28;46410;-87
2023/06/30 11:22:55;;;;;;;27.57;17.40;;;25.90;24.80;;;;;;4999896;28;46642;-82
2023/06/30 11:25:20;;;;;;;26.60;17.33;;;26.30;23.60;;;;;;5004808;28;46818;-83
2023/06/30 11:27:46;;;;;;;27.40;17.97;;;26.60;23.00;;;;;;4986012;28;49446;-86
2023/06/30 11:30:18;;;;;;;30.83;18.00;;;26.60;22.80;;;;;;5006491;28;46411;-86
2023/06/30 11:32:45;;;;;;;29.10;18.20;;;26.70;21.80;;;;;;4984761;28;46653;-84
2023/06/30 11:35:12;;;;;;;28.57;17.50;;;26.70;21.60;;;;;;5004721;28;46455;-82
2023/06/30 11:37:38;;;;;;;29.30;18.57;;;26.20;22.30;;;;;;5007830;28;46485;-84
2023/06/30 11:40:07;;;;;;;25.13;17.03;;;26.00;23.10;;;;;;5001648;28;46472;-84
2023/06/30 11:42:38;;;;;;;28.03;17.83;;;26.00;23.60;;;;;;4999406;28;46391;-82
2023/06/30 11:45:05;;;;;;;27.37;18.07;;;25.90;23.50;;;;;;4986290;28;47176;-83
2023/06/30 11:47:30;;;;;;;29.90;18.13;;;26.10;23.30;;;;;;5000416;28;46561;-79
2023/06/30 11:49:56;;;;;;;27.97;16.37;;;26.50;22.50;;;;;;4981220;28;46421;-81
2023/06/30 11:52:21;;;;;;;26.70;16.90;;;26.70;21.80;;;;;;4984492;28;46387;-80
2023/06/30 11:54:47;;;;;;;27.30;16.40;;;26.60;21.70;;;;;;5004307;28;46517;-80
2023/06/30 11:57:13;;;;;;;26.53;15.87;;;26.50;21.80;;;;;;4997864;28;47141;-84
2023/06/30 11:59:38;;;;;;;32.83;17.00;;;26.30;22.30;;;;;;4978171;28;46673;-83
2023/06/30 12:02:04;;;;;;;29.23;16.20;;;26.00;23.00;;;;;;5001144;28;46472;-83
2023/06/30 12:04:33;;;;;;;29.20;17.10;;;25.70;23.80;;;;;;4985479;28;46486;-85
2023/06/30 12:07:01;;;;;;;26.13;15.20;;;25.60;24.50;;;;;;4981651;28;48201;-80
2023/06/30 12:09:26;;;;;;;25.80;15.97;;;25.40;24.70;;;;;;4999698;28;46402;-82
2023/06/30 12:11:52;;;;;;;24.80;15.83;;;25.20;25.10;;;;;;5001247;28;47246;-83
2023/06/30 12:14:18;;;;;;;25.97;17.50;;;24.90;25.90;;;;;;5002066;28;46607;-83
2023/06/30 12:16:53;;;;;;;26.57;17.03;;;24.40;26.60;;;;;;4998317;28;47446;-81
2023/06/30 12:19:26;;;;;;;29.67;17.37;;;23.60;28.80;;;;;;4996707;28;46451;-84
2023/06/30 12:21:57;;;;;;;28.13;16.27;;;23.20;29.90;;;;;;4982116;28;47501;-85
2023/06/30 12:24:23;;;;;;;31.03;19.10;;;23.00;30.70;;;;;;5001812;28;46427;-81
2023/06/30 12:26:51;;;;;;;33.97;17.70;;;23.00;30.80;;;;;;4980797;28;49499;-80
2023/06/30 12:29:17;;;;;;;28.13;17.00;;;23.20;30.60;;;;;;5000042;28;45856;-82